Time;durP1;ratioP1;P1;durP2;ratioP2;P2;SDS_P1;SDS_P2;PMS_P1;PMS_P2;Temp;Humidity;BMP_temperature;BMP_pressure;BME280_temperature;BME280_humidity;BME280_pressure;Samples;Min_cycle;Max_cycle;Signal;HPM_P1;HPM_P2
2021/06/16 00:01:13;;;;;;;3.10;2.78;;;20.00;67.50;;;;;;5031622;28;20096;-76
2021/06/16 00:03:39;;;;;;;3.65;3.03;;;19.90;97.80;;;;;;5032172;28;20496;-76
2021/06/16 00:06:05;;;;;;;4.45;3.25;;;19.90;99.90;;;;;;5032204;28;20029;-76
2021/06/16 00:08:30;;;;;;;2.92;2.55;;;19.80;99.90;;;;;;5031011;28;20040;-76
2021/06/16 00:10:56;;;;;;;4.32;3.00;;;19.90;99.90;;;;;;5043336;28;20017;-75
2021/06/16 00:13:21;;;;;;;4.00;2.95;;;19.90;99.90;;;;;;5054531;28;20021;-76
2021/06/16 00:15:47;;;;;;;4.00;3.55;;;19.90;99.90;;;;;;5054535;28;20033;-76
2021/06/16 00:18:13;;;;;;;4.28;2.97;;;19.90;99.90;;;;;;5054413;28;20010;-77
2021/06/16 00:20:39;;;;;;;5.05;2.80;;;19.80;99.90;;;;;;5053326;28;20037;-76
2021/06/16 00:23:06;;;;;;;3.10;2.72;;;19.80;99.90;;;;;;5036261;28;20021;-77
2021/06/16 00:25:32;;;;;;;5.20;2.80;;;19.80;99.90;;;;;;5033180;28;20030;-77
2021/06/16 00:27:58;;;;;;;4.85;3.20;;;19.70;1.00;;;;;;5031213;28;20474;-76
2021/06/16 00:30:24;;;;;;;4.38;2.67;;;19.60;1.00;;;;;;5030319;28;20029;-76
2021/06/16 00:32:50;;;;;;;3.72;2.70;;;19.60;1.00;;;;;;5032095;28;20137;-77
2021/06/16 00:35:19;;;;;;;3.88;2.80;;;19.60;77.60;;;;;;5032782;28;20056;-76
2021/06/16 00:37:49;;;;;;;2.90;2.50;;;19.60;99.90;;;;;;5030526;28;20025;-76
2021/06/16 00:40:17;;;;;;;3.93;2.80;;;19.60;99.90;;;;;;5031967;28;20064;-76
2021/06/16 00:42:43;;;;;;;3.15;2.85;;;19.50;99.90;;;;;;5032663;28;20017;-77
2021/06/16 00:45:10;;;;;;;3.53;2.38;;;19.50;1.00;;;;;;5037577;28;20041;-76
2021/06/16 00:47:36;;;;;;;4.35;3.58;;;19.50;99.90;;;;;;5037742;28;20025;-76
2021/06/16 00:50:05;;;;;;;6.82;3.38;;;19.50;99.90;;;;;;5031260;28;20032;-77
2021/06/16 00:52:30;;;;;;;3.40;3.10;;;19.50;1.00;;;;;;5031956;28;20065;-76
2021/06/16 00:54:56;;;;;;;7.45;3.75;;;19.50;1.00;;;;;;5031719;28;20073;-76
2021/06/16 00:57:22;;;;;;;6.95;3.08;;;19.40;99.90;;;;;;5031165;28;20017;-76
2021/06/16 01:00:03;;;;;;;5.30;3.25;;;19.40;99.90;;;;;;5031125;28;20136;-76
2021/06/16 01:02:34;;;;;;;4.22;3.75;;;19.40;99.90;;;;;;5024051;28;20496;-76
2021/06/16 01:05:01;;;;;;;7.82;3.50;;;19.40;99.90;;;;;;5031117;28;20021;-76
2021/06/16 01:07:32;;;;;;;6.35;3.25;;;19.40;99.90;;;;;;5023725;28;20489;-76
2021/06/16 01:10:01;;;;;;;4.78;3.72;;;19.40;1.00;;;;;;5034123;28;20105;-76
2021/06/16 01:12:30;;;;;;;6.47;3.83;;;19.40;1.00;;;;;;5028674;28;20021;-76
2021/06/16 01:15:01;;;;;;;5.00;4.45;;;19.40;1.00;;;;;;5034739;28;20044;-76
2021/06/16 01:17:32;;;;;;;;;;;19.30;17.90;;;;;;5026727;28;20021;-76
2021/06/16 01:19:58;;;;;;;4.35;3.72;;;19.30;99.90;;;;;;5033327;28;19909;-76
2021/06/16 01:22:31;;;;;;;4.82;3.65;;;19.30;1.00;;;;;;5033353;28;20021;-77
2021/06/16 01:25:03;;;;;;;4.60;3.53;;;19.20;1.00;;;;;;5034191;28;20347;-76
2021/06/16 01:27:29;;;;;;;8.48;3.75;;;19.20;13.80;;;;;;5030109;28;20029;-76
2021/06/16 01:29:58;;;;;;;8.85;3.90;;;19.20;99.90;;;;;;5034888;28;20032;-76
2021/06/16 01:32:24;;;;;;;5.22;3.47;;;19.20;99.90;;;;;;5033666;28;20080;-76
2021/06/16 01:34:50;;;;;;;5.68;3.53;;;19.10;99.90;;;;;;5033150;28;20033;-76
2021/06/16 01:37:16;;;;;;;4.40;3.63;;;19.10;1.00;;;;;;5034204;28;20026;-75
2021/06/16 01:39:44;;;;;;;4.63;3.78;;;19.10;1.00;;;;;;5029592;28;20109;-75
2021/06/16 01:42:20;;;;;;;4.65;3.15;;;19.00;99.90;;;;;;5034747;28;20028;-75
2021/06/16 01:44:49;;;;;;;6.05;3.30;;;19.00;99.90;;;;;;5034560;28;20401;-75
2021/06/16 01:47:17;;;;;;;3.88;3.30;;;19.00;99.90;;;;;;5035268;28;20033;-76
2021/06/16 01:49:45;;;;;;;8.40;4.15;;;19.00;1.00;;;;;;5034460;28;20159;-76
2021/06/16 01:52:11;;;;;;;6.10;3.63;;;18.90;99.90;;;;;;5034407;28;20029;-76
2021/06/16 01:54:37;;;;;;;4.53;3.22;;;18.90;99.90;;;;;;5034149;28;20263;-76
2021/06/16 01:57:05;;;;;;;3.92;3.45;;;18.90;99.90;;;;;;5033615;28;20060;-76
2021/06/16 01:59:31;;;;;;;6.43;3.97;;;18.90;1.00;;;;;;5033608;28;20022;-76
2021/06/16 02:01:57;;;;;;;8.00;3.80;;;18.90;10.20;;;;;;5033286;28;20029;-76
2021/06/16 02:04:23;;;;;;;6.03;3.80;;;18.80;99.90;;;;;;5033866;28;20063;-76
2021/06/16 02:06:54;;;;;;;4.38;3.75;;;18.80;99.90;;;;;;5033581;28;20104;-76
2021/06/16 02:09:23;;;;;;;5.60;4.38;;;18.80;99.90;;;;;;5032711;28;20543;-76
2021/06/16 02:11:49;;;;;;;6.90;4.25;;;18.80;99.90;;;;;;5035185;28;20109;-76
2021/06/16 02:14:18;;;;;;;5.82;4.70;;;18.80;1.00;;;;;;5034778;28;20065;-76
2021/06/16 02:16:52;;;;;;;5.63;4.20;;;18.80;1.00;;;;;;5035186;28;20029;-75
2021/06/16 02:19:26;;;;;;;6.30;3.78;;;18.80;1.00;;;;;;5044567;28;20377;-76
2021/06/16 02:21:54;;;;;;;7.65;4.18;;;18.70;21.30;;;;;;5035405;28;20561;-75
2021/06/16 02:24:20;;;;;;;4.20;3.67;;;18.70;83.30;;;;;;5034315;28;20028;-76
2021/06/16 02:26:46;;;;;;;4.75;3.95;;;18.70;98.50;;;;;;5033983;28;20717;-77
2021/06/16 02:29:12;;;;;;;5.95;3.70;;;18.70;99.90;;;;;;5032561;28;20025;-75
2021/06/16 02:31:39;;;;;;;5.32;4.20;;;18.60;99.90;;;;;;5033350;28;20024;-77
2021/06/16 02:34:05;;;;;;;7.15;4.00;;;18.60;99.90;;;;;;5031745;28;20029;-76
2021/06/16 02:36:35;;;;;;;6.90;4.88;;;18.60;99.90;;;;;;5033000;28;20131;-75
2021/06/16 02:39:06;;;;;;;5.07;4.28;;;18.60;99.90;;;;;;5032618;28;20025;-76
2021/06/16 02:41:32;;;;;;;8.38;4.72;;;18.50;99.90;;;;;;5032753;28;20033;-76
2021/06/16 02:43:58;;;;;;;6.80;5.45;;;18.60;1.00;;;;;;5032306;28;20033;-76
2021/06/16 02:46:25;;;;;;;5.40;4.32;;;18.60;1.00;;;;;;5032475;28;20041;-75
2021/06/16 02:48:53;;;;;;;6.03;4.30;;;18.60;1.00;;;;;;5032730;28;20029;-75
2021/06/16 02:51:18;;;;;;;6.00;4.15;;;18.70;99.90;;;;;;5032492;28;20035;-75
2021/06/16 02:53:45;;;;;;;5.10;4.60;;;18.80;99.90;;;;;;5032777;28;20018;-75
2021/06/16 02:56:11;;;;;;;6.38;5.15;;;18.70;1.00;;;;;;5032243;28;20056;-75
2021/06/16 02:58:42;;;;;;;8.40;5.43;;;18.60;1.00;;;;;;5032925;28;20092;-76
2021/06/16 03:01:13;;;;;;;5.88;4.97;;;18.60;1.00;;;;;;5030935;28;20032;-76
2021/06/16 03:03:41;;;;;;;5.25;4.57;;;18.50;1.00;;;;;;5042260;28;20049;-75
2021/06/16 03:06:08;;;;;;;9.20;5.25;;;18.50;1.00;;;;;;5045609;28;20030;-75
2021/06/16 03:08:35;;;;;;;5.13;4.60;;;18.50;1.00;;;;;;5040051;28;20026;-75
2021/06/16 03:11:01;;;;;;;9.23;5.10;;;18.50;1.00;;;;;;5031272;28;20028;-76
2021/06/16 03:13:29;;;;;;;7.38;5.13;;;18.50;1.00;;;;;;5024176;28;20528;-75
2021/06/16 03:15:55;;;;;;;7.68;5.72;;;18.40;1.00;;;;;;5030326;28;20033;-75
2021/06/16 03:18:22;;;;;;;8.27;5.65;;;18.40;1.50;;;;;;5031478;28;20068;-76
2021/06/16 03:20:50;;;;;;;9.00;5.88;;;18.40;9.00;;;;;;5032087;28;20017;-76
2021/06/16 03:23:15;;;;;;;11.18;5.43;;;18.40;13.90;;;;;;5028046;28;20052;-75
2021/06/16 03:25:43;;;;;;;7.90;5.00;;;18.50;1.00;;;;;;5031535;28;20083;-75
2021/06/16 03:28:09;;;;;;;7.85;5.18;;;18.40;58.20;;;;;;5031602;28;20041;-76
2021/06/16 03:30:36;;;;;;;8.98;5.32;;;18.40;46.50;;;;;;5030467;28;20460;-76
2021/06/16 03:33:03;;;;;;;9.32;5.10;;;18.40;27.70;;;;;;5031466;28;20021;-75
2021/06/16 03:35:28;;;;;;;8.93;5.22;;;18.40;40.10;;;;;;5032104;28;20076;-75
2021/06/16 03:37:55;;;;;;;7.70;5.28;;;18.50;52.10;;;;;;5030464;28;20061;-76
2021/06/16 03:40:25;;;;;;;7.28;5.50;;;18.60;3.50;;;;;;5031462;28;20041;-76
2021/06/16 03:42:51;;;;;;;6.72;4.85;;;18.60;24.10;;;;;;5030986;28;20083;-76
2021/06/16 03:45:17;;;;;;;9.05;5.35;;;18.70;1.00;;;;;;5030577;28;20036;-75
2021/06/16 03:47:46;;;;;;;8.50;4.88;;;18.80;1.00;;;;;;5030048;28;20104;-76
2021/06/16 03:50:15;;;;;;;8.77;5.78;;;18.80;1.00;;;;;;5030519;28;20485;-76
2021/06/16 03:52:42;;;;;;;11.13;6.00;;;19.00;1.00;;;;;;5043464;28;20037;-76
2021/06/16 03:55:09;;;;;;;7.72;6.00;;;18.90;1.00;;;;;;5032723;28;20040;-76
2021/06/16 03:57:35;;;;;;;9.70;5.88;;;18.80;1.00;;;;;;5031422;28;20048;-76
2021/06/16 04:00:03;;;;;;;10.23;5.38;;;18.70;1.00;;;;;;5031080;28;20041;-76
2021/06/16 04:02:29;;;;;;;8.52;5.97;;;18.90;1.00;;;;;;5023031;28;20397;-76
2021/06/16 04:04:59;;;;;;;8.25;6.28;;;18.90;1.00;;;;;;5031713;28;20104;-76
2021/06/16 04:07:25;;;;;;;7.65;4.97;;;19.00;1.00;;;;;;5030660;28;20104;-76
2021/06/16 04:09:54;;;;;;;12.75;6.22;;;19.00;1.00;;;;;;5031347;28;20048;-76
2021/06/16 04:12:20;;;;;;;10.38;5.55;;;19.00;1.00;;;;;;5030587;28;20068;-75
2021/06/16 04:14:46;;;;;;;9.95;6.00;;;19.00;1.00;;;;;;5027672;28;65268;-75
2021/06/16 04:17:12;;;;;;;9.80;5.55;;;19.20;1.00;;;;;;5030102;28;20045;-75
2021/06/16 04:19:38;;;;;;;7.93;5.57;;;19.30;1.00;;;;;;5036792;28;20041;-75
2021/06/16 04:22:04;;;;;;;8.13;6.05;;;19.30;1.00;;;;;;5040289;28;20029;-77
2021/06/16 04:24:30;;;;;;;9.13;6.80;;;19.50;99.90;;;;;;5032949;28;20030;-76
2021/06/16 04:26:56;;;;;;;12.32;5.93;;;19.60;99.90;;;;;;5033612;28;20029;-76
2021/06/16 04:29:21;;;;;;;7.45;5.60;;;19.70;99.90;;;;;;5034060;28;20473;-77
2021/06/16 04:31:47;;;;;;;11.48;6.25;;;19.80;99.90;;;;;;5032999;28;20029;-76
2021/06/16 04:34:13;;;;;;;8.38;5.90;;;19.80;99.90;;;;;;5031394;28;20029;-76
2021/06/16 04:36:38;;;;;;;10.88;6.10;;;20.20;99.90;;;;;;5031955;28;20072;-76
2021/06/16 04:39:04;;;;;;;10.77;6.32;;;20.60;25.60;;;;;;5031764;28;20029;-75
2021/06/16 04:41:30;;;;;;;7.88;5.07;;;20.60;1.00;;;;;;5031349;28;20034;-75
2021/06/16 04:43:55;;;;;;;6.20;4.63;;;20.60;1.00;;;;;;5033935;28;20026;-75
2021/06/16 04:46:24;;;;;;;9.15;4.75;;;21.00;99.90;;;;;;5034857;28;20557;-75
2021/06/16 04:48:50;;;;;;;6.50;4.53;;;21.30;1.00;;;;;;5035921;28;20065;-77
2021/06/16 04:51:15;;;;;;;8.27;5.25;;;21.40;99.90;;;;;;5035477;28;20072;-77
2021/06/16 04:53:41;;;;;;;7.70;4.50;;;22.30;99.90;;;;;;5034442;28;20021;-76
2021/06/16 04:56:07;;;;;;;10.30;5.32;;;22.80;99.90;;;;;;5035134;28;20029;-76
2021/06/16 04:58:32;;;;;;;6.80;4.18;;;22.80;99.90;;;;;;5036045;28;20025;-76
2021/06/16 05:00:58;;;;;;;6.35;5.00;;;22.60;99.90;;;;;;5037709;28;20025;-76
2021/06/16 05:03:23;;;;;;;5.75;4.25;;;22.60;99.90;;;;;;5035328;28;20025;-76
2021/06/16 05:05:49;;;;;;;6.53;4.78;;;22.90;1.00;;;;;;5036029;28;20020;-78
2021/06/16 05:08:14;;;;;;;10.35;4.28;;;24.00;1.00;;;;;;5035747;28;20489;-76
2021/06/16 05:10:40;;;;;;;7.82;4.45;;;24.00;26.80;;;;;;5038598;28;20060;-76
2021/06/16 05:13:05;;;;;;;5.88;3.88;;;24.60;99.90;;;;;;5044792;28;20026;-75
2021/06/16 05:15:31;;;;;;;7.15;3.80;;;25.00;99.90;;;;;;5050228;28;20362;-76
2021/06/16 05:17:57;;;;;;;6.00;4.18;;;24.40;99.90;;;;;;5046994;28;20045;-76
2021/06/16 05:20:24;;;;;;;6.03;4.30;;;24.90;99.90;;;;;;5051124;28;20026;-76
2021/06/16 05:22:50;;;;;;;5.80;3.78;;;24.30;99.90;;;;;;5042874;28;20028;-75
2021/06/16 05:25:17;;;;;;;7.70;4.03;;;24.50;99.90;;;;;;5054977;28;20033;-76
2021/06/16 05:27:42;;;;;;;9.98;4.80;;;24.00;99.90;;;;;;5049142;28;20169;-76
2021/06/16 05:30:08;;;;;;;4.32;3.25;;;23.90;99.90;;;;;;5049989;28;20030;-77
2021/06/16 05:32:36;;;;;;;6.82;3.40;;;23.80;99.90;;;;;;5054776;28;20017;-76
2021/06/16 05:35:02;;;;;;;5.85;3.13;;;23.80;99.90;;;;;;5051620;28;20033;-76
2021/06/16 05:37:27;;;;;;;8.45;3.85;;;24.80;59.30;;;;;;5050071;28;20022;-77
2021/06/16 05:39:53;;;;;;;7.30;3.88;;;24.20;69.50;;;;;;5043019;28;20052;-78
2021/06/16 05:42:18;;;;;;;7.55;4.53;;;25.00;20.00;;;;;;5038638;28;20100;-77
2021/06/16 05:44:44;;;;;;;8.90;3.03;;;25.10;1.00;;;;;;5036506;28;20064;-76
2021/06/16 05:47:10;;;;;;;9.82;4.75;;;25.70;1.00;;;;;;5038014;28;20025;-78
2021/06/16 05:49:35;;;;;;;7.85;4.43;;;25.10;1.00;;;;;;5036013;28;20084;-77
2021/06/16 05:52:01;;;;;;;7.80;3.75;;;25.80;1.00;;;;;;5035932;28;20025;-80
2021/06/16 05:54:27;;;;;;;7.28;3.85;;;26.70;1.00;;;;;;5033963;28;20501;-77
2021/06/16 05:56:53;;;;;;;8.88;3.60;;;27.10;1.00;;;;;;5035305;28;20064;-77
2021/06/16 05:59:19;;;;;;;28.83;10.65;;;26.70;99.90;;;;;;5035020;28;20032;-77
2021/06/16 06:01:44;;;;;;;22.67;9.63;;;26.10;99.90;;;;;;5033872;28;20032;-76
2021/06/16 06:04:10;;;;;;;15.65;4.85;;;25.30;99.90;;;;;;5034971;28;20022;-77
2021/06/16 06:06:37;;;;;;;6.93;3.47;;;25.00;99.90;;;;;;5035444;28;20021;-77
2021/06/16 06:09:08;;;;;;;10.73;4.80;;;25.50;99.90;;;;;;5035130;28;20025;-76
2021/06/16 06:11:34;;;;;;;;;;;26.30;99.90;;;;;;5035036;28;20508;-76
2021/06/16 06:14:01;;;;;;;10.57;3.65;;;26.50;99.90;;;;;;5055684;22;19921;-76
2021/06/16 06:16:27;;;;;;;7.00;3.97;;;27.20;99.90;;;;;;4994155;28;20426;-75
2021/06/16 06:18:52;;;;;;;5.38;3.83;;;27.10;99.90;;;;;;5001226;28;20025;-76
2021/06/16 06:21:18;;;;;;;11.65;4.43;;;27.10;99.90;;;;;;5003703;28;20030;-75
2021/06/16 06:23:44;;;;;;;7.03;3.97;;;26.60;99.90;;;;;;4998551;28;20061;-75
2021/06/16 06:26:09;;;;;;;8.85;3.95;;;26.80;99.90;;;;;;5005255;28;20042;-76
2021/06/16 06:28:36;;;;;;;9.32;3.65;;;26.30;99.90;;;;;;5011960;28;20022;-76
2021/06/16 06:31:02;;;;;;;9.95;3.45;;;25.20;99.90;;;;;;5011651;28;20026;-76
2021/06/16 06:33:28;;;;;;;8.23;3.85;;;24.90;99.90;;;;;;5012331;28;20061;-76
2021/06/16 06:35:53;;;;;;;10.60;3.92;;;25.00;99.90;;;;;;5012801;28;20029;-74
2021/06/16 06:38:19;;;;;;;14.75;5.20;;;25.00;99.90;;;;;;5010807;28;20033;-75
2021/06/16 06:40:45;;;;;;;8.20;4.63;;;24.90;99.90;;;;;;5004298;28;20030;-76
2021/06/16 06:43:10;;;;;;;15.23;4.63;;;24.70;99.90;;;;;;5012574;28;20033;-76
2021/06/16 06:45:36;;;;;;;10.38;4.30;;;24.70;99.90;;;;;;5012415;28;20029;-76
2021/06/16 06:48:01;;;;;;;7.03;4.50;;;24.70;99.90;;;;;;5012919;28;20125;-75
2021/06/16 06:50:27;;;;;;;7.00;4.32;;;24.70;99.90;;;;;;5002398;28;20030;-77
2021/06/16 06:52:52;;;;;;;19.00;4.60;;;24.60;99.90;;;;;;5014215;28;20096;-75
2021/06/16 06:55:18;;;;;;;9.57;3.75;;;24.20;99.90;;;;;;5001625;28;20088;-76
2021/06/16 06:57:45;;;;;;;11.00;4.38;;;24.70;99.90;;;;;;5005867;28;20026;-75
2021/06/16 07:00:12;;;;;;;4.82;3.40;;;24.70;99.90;;;;;;5012311;28;20076;-75
2021/06/16 07:02:37;;;;;;;6.72;3.97;;;24.80;99.90;;;;;;5012517;28;20033;-74
2021/06/16 07:05:11;;;;;;;7.13;4.03;;;24.80;99.90;;;;;;5016615;28;20078;-82
2021/06/16 07:07:36;;;;;;;5.43;3.88;;;25.00;99.90;;;;;;5029106;28;20032;-80
2021/06/16 07:10:02;;;;;;;8.82;4.00;;;25.10;99.90;;;;;;5023592;28;20041;-80
2021/06/16 07:12:28;;;;;;;6.32;3.88;;;25.00;99.90;;;;;;5023482;28;20049;-81
2021/06/16 07:14:55;;;;;;;8.15;3.58;;;25.10;99.90;;;;;;5017813;28;20073;-82
2021/06/16 07:17:22;;;;;;;9.30;3.60;;;25.20;99.90;;;;;;5021973;28;20053;-82
2021/06/16 07:19:48;;;;;;;7.40;4.40;;;25.30;99.90;;;;;;5024145;28;20072;-80
2021/06/16 07:22:14;;;;;;;9.23;4.07;;;25.30;99.90;;;;;;5019739;28;20122;-81
2021/06/16 07:24:39;;;;;;;7.28;3.67;;;25.40;99.90;;;;;;5014831;28;20110;-81
2021/06/16 07:27:05;;;;;;;8.82;3.38;;;25.50;99.90;;;;;;5015548;28;20022;-82
2021/06/16 07:29:31;;;;;;;8.25;3.55;;;25.40;99.90;;;;;;5018645;28;20054;-80
2021/06/16 07:31:57;;;;;;;6.72;3.80;;;25.60;99.90;;;;;;5016669;28;20022;-82
2021/06/16 07:34:23;;;;;;;6.18;3.55;;;25.90;99.90;;;;;;5008190;28;20185;-82
2021/06/16 07:36:49;;;;;;;5.78;3.53;;;25.90;99.90;;;;;;5015674;28;20027;-80
2021/06/16 07:39:14;;;;;;;6.38;3.75;;;26.30;99.90;;;;;;5007892;28;20073;-82
2021/06/16 07:41:40;;;;;;;7.32;3.78;;;26.20;99.90;;;;;;5017369;28;20022;-82
2021/06/16 07:44:05;;;;;;;5.15;3.10;;;25.90;99.90;;;;;;5018080;28;20029;-80
2021/06/16 07:46:31;;;;;;;7.88;3.58;;;26.30;99.90;;;;;;5020147;28;20474;-80
2021/06/16 07:48:57;;;;;;;6.05;3.40;;;26.40;99.90;;;;;;5016220;28;20042;-81
2021/06/16 07:51:22;;;;;;;8.23;3.60;;;26.70;99.90;;;;;;5020889;28;20030;-82
2021/06/16 07:53:48;;;;;;;4.75;3.10;;;26.70;99.90;;;;;;5017159;28;20387;-83
2021/06/16 07:56:15;;;;;;;6.70;3.13;;;26.70;99.90;;;;;;5019657;28;20029;-82
2021/06/16 07:58:40;;;;;;;8.90;3.13;;;26.90;99.90;;;;;;5020404;28;20022;-81
2021/06/16 08:01:06;;;;;;;5.70;3.40;;;27.30;99.90;;;;;;5017161;28;20048;-81
2021/06/16 08:03:31;;;;;;;9.85;3.63;;;27.30;99.90;;;;;;5018445;28;20036;-82
2021/06/16 08:05:57;;;;;;;8.93;3.67;;;27.30;99.90;;;;;;5024810;28;20026;-80
2021/06/16 08:08:26;;;;;;;3.95;3.15;;;27.00;99.90;;;;;;5021468;28;20512;-81
2021/06/16 08:10:51;;;;;;;9.25;3.08;;;27.10;99.90;;;;;;5025721;28;20044;-81
2021/06/16 08:13:18;;;;;;;10.13;3.30;;;27.20;99.90;;;;;;5022391;28;20062;-80
2021/06/16 08:15:44;;;;;;;6.28;3.05;;;27.30;99.90;;;;;;5013039;28;20093;-84
2021/06/16 08:18:12;;;;;;;5.88;2.78;;;27.00;99.90;;;;;;5021016;28;20018;-82
2021/06/16 08:20:38;;;;;;;6.03;2.97;;;27.30;99.90;;;;;;5019139;28;20018;-83
2021/06/16 08:23:06;;;;;;;5.38;2.47;;;27.30;99.90;;;;;;5019999;28;20390;-83
2021/06/16 08:25:32;;;;;;;3.50;2.95;;;27.50;99.90;;;;;;5020300;28;20025;-81
2021/06/16 08:27:57;;;;;;;5.65;2.65;;;27.80;99.90;;;;;;5015816;28;20033;-80
2021/06/16 08:30:23;;;;;;;5.80;2.85;;;27.60;99.90;;;;;;5017548;28;20033;-82
2021/06/16 08:32:49;;;;;;;4.55;2.55;;;27.70;99.90;;;;;;5018562;28;20063;-83
2021/06/16 08:35:15;;;;;;;4.72;2.50;;;28.00;99.90;;;;;;5018514;28;20406;-83
2021/06/16 08:37:41;;;;;;;4.95;2.47;;;28.10;99.90;;;;;;5004746;28;20157;-83
2021/06/16 08:40:07;;;;;;;4.40;2.45;;;28.20;99.90;;;;;;5018545;28;20028;-84
2021/06/16 08:42:33;;;;;;;6.63;3.13;;;28.20;99.90;;;;;;5019110;28;20036;-78
2021/06/16 08:44:59;;;;;;;11.65;2.97;;;28.10;99.90;;;;;;5017698;28;20034;-82
2021/06/16 08:47:25;;;;;;;4.28;2.55;;;28.20;99.90;;;;;;4999765;28;20045;-83
2021/06/16 08:49:52;;;;;;;6.47;3.08;;;28.40;99.90;;;;;;5017275;28;20049;-84
2021/06/16 08:52:18;;;;;;;6.20;2.17;;;28.70;99.90;;;;;;5018193;28;20033;-84
2021/06/16 08:54:44;;;;;;;7.30;2.50;;;28.80;99.90;;;;;;5018134;28;20038;-82
2021/06/16 08:57:10;;;;;;;6.10;2.88;;;28.90;99.90;;;;;;5024462;28;20025;-85
2021/06/16 08:59:36;;;;;;;2.97;2.10;;;28.80;99.90;;;;;;5035466;28;20033;-85
2021/06/16 09:02:02;;;;;;;3.80;2.30;;;28.80;99.90;;;;;;5025810;28;20082;-82
2021/06/16 09:04:49;;;;;;;3.67;2.53;;;28.70;99.90;;;;;;5021329;28;20100;-82
2021/06/16 09:07:17;;;;;;;6.20;2.35;;;28.70;99.90;;;;;;5023105;28;20076;-84
2021/06/16 09:09:43;;;;;;;2.92;2.28;;;28.80;99.90;;;;;;5028804;28;20082;-84
2021/06/16 09:12:12;;;;;;;6.80;2.65;;;28.70;99.90;;;;;;5027897;28;20022;-83
2021/06/16 09:14:50;;;;;;;5.10;2.85;;;29.00;99.90;;;;;;5024527;28;20092;-84
2021/06/16 09:17:21;;;;;;;3.78;2.30;;;29.00;99.90;;;;;;5028068;28;20022;-83
2021/06/16 09:19:50;;;;;;;;;;;28.90;99.90;;;;;;5026965;28;20026;-83
2021/06/16 09:22:16;;;;;;;5.28;2.13;;;29.10;99.90;;;;;;5018563;28;20008;-83
2021/06/16 09:24:52;;;;;;;5.13;2.03;;;29.10;99.90;;;;;;5022614;28;20068;-82
2021/06/16 09:27:47;;;;;;;2.08;1.92;;;29.10;99.90;;;;;;5014622;28;20390;-82
2021/06/16 09:30:18;;;;;;;2.63;2.00;;;29.20;99.90;;;;;;5021857;28;20056;-82
2021/06/16 09:32:47;;;;;;;5.95;2.88;;;29.30;99.90;;;;;;5023779;28;20022;-82
2021/06/16 09:35:27;;;;;;;6.38;2.33;;;29.40;99.90;;;;;;5024195;28;20069;-82
2021/06/16 09:37:54;;;;;;;8.15;2.17;;;29.20;99.90;;;;;;5025145;28;20025;-84
2021/06/16 09:40:32;;;;;;;2.78;1.90;;;29.60;99.90;;;;;;5021109;28;20025;-84
2021/06/16 09:43:06;;;;;;;5.57;2.22;;;29.80;99.90;;;;;;5022122;28;20549;-84
2021/06/16 09:45:33;;;;;;;8.07;2.72;;;29.60;99.90;;;;;;5014133;28;20022;-82
2021/06/16 09:48:19;;;;;;;9.48;2.95;;;29.90;99.90;;;;;;5005972;28;20085;-83
2021/06/16 09:50:44;;;;;;;4.65;2.38;;;30.00;99.90;;;;;;5011142;28;20098;-84
2021/06/16 09:53:10;;;;;;;3.53;2.28;;;29.90;99.90;;;;;;5019878;28;20049;-83
2021/06/16 09:55:36;;;;;;;8.00;3.17;;;29.70;99.90;;;;;;5021438;28;20030;-85
2021/06/16 09:58:04;;;;;;;3.92;2.05;;;29.90;99.90;;;;;;5020651;28;20543;-85
2021/06/16 10:00:33;;;;;;;2.95;2.35;;;30.30;99.90;;;;;;5018941;28;20485;-85
2021/06/16 10:03:06;;;;;;;4.68;2.33;;;30.40;99.90;;;;;;5023245;28;20045;-83
2021/06/16 10:05:32;;;;;;;7.97;2.05;;;30.60;99.90;;;;;;5022804;28;20026;-83
2021/06/16 10:07:58;;;;;;;4.15;1.92;;;30.70;99.90;;;;;;5016012;28;20026;-84
2021/06/16 10:10:24;;;;;;;6.60;2.22;;;30.80;99.90;;;;;;5026310;28;20486;-86
2021/06/16 10:12:56;;;;;;;3.08;1.88;;;30.70;99.90;;;;;;5019163;28;20026;-86
2021/06/16 10:15:22;;;;;;;2.55;2.08;;;30.60;99.90;;;;;;5015692;28;20464;-88
2021/06/16 10:17:50;;;;;;;3.67;1.92;;;30.70;99.90;;;;;;5017966;28;20030;-85
2021/06/16 10:20:16;;;;;;;2.95;2.00;;;30.30;99.90;;;;;;5021504;28;20397;-85
2021/06/16 10:22:42;;;;;;;6.63;2.67;;;30.80;99.90;;;;;;5021995;28;20140;-82
2021/06/16 10:25:09;;;;;;;3.08;1.98;;;31.00;99.90;;;;;;5022417;28;20029;-86
2021/06/16 10:27:36;;;;;;;5.38;2.40;;;31.00;96.50;;;;;;5023047;28;20179;-83
2021/06/16 10:30:08;;;;;;;6.70;4.82;;;30.80;98.30;;;;;;5023520;28;20074;-83
2021/06/16 10:32:39;;;;;;;3.55;2.30;;;30.80;97.20;;;;;;5015651;28;20021;-84
2021/06/16 10:35:06;;;;;;;6.15;2.30;;;31.00;95.60;;;;;;5024446;28;20033;-82
2021/06/16 10:37:33;;;;;;;4.15;1.98;;;31.50;94.20;;;;;;5025384;28;20022;-84
2021/06/16 10:40:22;;;;;;;4.78;1.90;;;31.40;94.30;;;;;;5018876;28;20021;-82
2021/06/16 10:43:03;;;;;;;6.53;2.00;;;31.40;94.20;;;;;;5018841;28;20097;-84
2021/06/16 10:45:37;;;;;;;4.53;1.70;;;31.60;94.20;;;;;;5016395;28;20026;-83
2021/06/16 10:48:05;;;;;;;6.95;2.10;;;31.50;92.70;;;;;;5024013;28;20081;-82
2021/06/16 10:50:46;;;;;;;3.08;2.13;;;31.40;91.50;;;;;;5020337;28;20101;-82
2021/06/16 10:53:13;;;;;;;5.45;1.85;;;31.60;90.90;;;;;;5012829;28;20035;-83
2021/06/16 10:58:52;;;;;;;5.40;1.60;;;31.60;79.50;;;;;;5025237;28;20101;-84
2021/06/16 11:01:20;;;;;;;4.38;2.08;;;31.40;78.20;;;;;;4982320;28;20069;-84
2021/06/16 11:06:32;;;;;;;4.05;1.83;;;31.70;78.30;;;;;;5012856;28;20046;-84
2021/06/16 11:09:07;;;;;;;6.78;2.03;;;31.60;77.10;;;;;;5014255;28;20026;-84
2021/06/16 11:12:06;;;;;;;4.88;2.03;;;31.40;76.80;;;;;;5003776;28;20033;-85
2021/06/16 11:14:35;;;;;;;6.07;2.00;;;31.60;76.40;;;;;;5010377;28;20038;-83
2021/06/16 11:17:06;;;;;;;2.28;1.60;;;31.50;76.40;;;;;;5007727;28;20034;-83
2021/06/16 11:19:37;;;;;;;6.10;1.70;;;31.80;76.60;;;;;;5019151;28;20044;-84
2021/06/16 11:22:13;;;;;;;6.85;1.80;;;31.60;74.50;;;;;;5006480;28;20025;-83
2021/06/16 11:25:03;;;;;;;4.40;1.80;;;31.60;72.90;;;;;;5020939;28;20519;-83
2021/06/16 11:27:54;;;;;;;5.40;1.90;;;31.70;74.50;;;;;;5011577;28;20054;-82
2021/06/16 11:30:40;;;;;;;6.63;2.20;;;32.00;73.90;;;;;;5023445;28;20037;-84
2021/06/16 11:33:21;;;;;;;5.40;2.22;;;32.00;70.40;;;;;;5017870;28;20077;-84
2021/06/16 11:35:50;;;;;;;2.22;1.70;;;32.00;67.50;;;;;;5013747;28;20015;-83
2021/06/16 11:38:18;;;;;;;3.95;1.77;;;32.30;67.30;;;;;;5001912;28;20030;-84
2021/06/16 11:40:54;;;;;;;4.45;2.72;;;32.20;66.60;;;;;;5020682;28;20022;-83
2021/06/16 11:43:35;;;;;;;7.68;2.45;;;31.80;66.20;;;;;;5020432;28;20025;-83
2021/06/16 11:46:04;;;;;;;5.18;2.40;;;31.80;68.40;;;;;;5019951;28;20022;-82
2021/06/16 11:48:30;;;;;;;4.85;1.88;;;31.90;66.10;;;;;;5019799;28;20460;-82
2021/06/16 11:50:55;;;;;;;8.75;2.55;;;32.00;65.20;;;;;;5008129;28;20022;-83
2021/06/16 11:53:30;;;;;;;4.53;1.92;;;32.00;66.30;;;;;;5008247;28;20036;-83
2021/06/16 11:55:59;;;;;;;2.13;1.67;;;31.90;66.30;;;;;;5011950;28;20022;-82
2021/06/16 11:58:32;;;;;;;3.73;2.10;;;32.00;62.70;;;;;;5020289;28;20072;-83
2021/06/16 12:01:08;;;;;;;11.10;3.13;;;32.10;63.20;;;;;;5021618;28;20021;-83
2021/06/16 12:03:36;;;;;;;2.03;1.60;;;32.00;64.00;;;;;;5022774;28;20029;-84
2021/06/16 12:06:11;;;;;;;2.00;1.80;;;32.10;63.50;;;;;;5014194;28;20085;-83
2021/06/16 12:08:38;;;;;;;8.10;2.75;;;32.20;58.80;;;;;;5011616;28;20026;-83
2021/06/16 12:11:17;;;;;;;7.05;1.73;;;32.20;60.10;;;;;;5012910;28;20034;-84
2021/06/16 12:14:11;;;;;;;3.35;2.35;;;32.00;60.90;;;;;;5011336;28;20030;-84
2021/06/16 12:16:42;;;;;;;2.63;2.05;;;32.10;58.20;;;;;;5105257;22;20076;-75
2021/06/16 12:19:14;;;;;;;2.55;1.70;;;32.00;57.60;;;;;;5050110;28;20021;-75
2021/06/16 12:21:59;;;;;;;2.00;1.77;;;32.60;57.10;;;;;;5057970;28;20027;-75
2021/06/16 12:24:33;;;;;;;5.15;1.90;;;32.30;57.50;;;;;;5053063;28;20024;-73
2021/06/16 12:27:14;;;;;;;6.00;2.25;;;32.10;57.30;;;;;;5052195;28;20021;-74
2021/06/16 12:29:48;;;;;;;3.92;1.70;;;32.10;58.40;;;;;;5047736;28;20095;-75
2021/06/16 12:32:43;;;;;;;2.63;2.28;;;32.30;59.10;;;;;;5044104;28;20527;-73
2021/06/16 12:35:40;;;;;;;5.07;1.70;;;32.60;56.90;;;;;;5066272;28;20061;-73
2021/06/16 12:38:02;;;;;;;1.63;1.35;;;32.80;54.70;;;;;;5059841;28;20044;-73
2021/06/16 12:40:32;;;;;;;2.13;1.45;;;32.80;51.90;;;;;;5065519;28;20362;-74
2021/06/16 12:42:58;;;;;;;4.90;1.90;;;32.60;51.70;;;;;;5057117;28;20064;-75
2021/06/16 12:45:38;;;;;;;2.20;1.67;;;32.50;51.10;;;;;;5052192;28;20252;-74
2021/06/16 12:48:15;;;;;;;3.88;1.65;;;32.40;49.90;;;;;;5048882;28;20033;-75
2021/06/16 12:50:41;;;;;;;3.90;1.60;;;32.60;49.60;;;;;;5037192;28;20075;-74
2021/06/16 12:53:14;;;;;;;2.05;1.85;;;32.40;58.20;;;;;;5051837;28;20485;-75
2021/06/16 12:55:47;;;;;;;5.20;1.80;;;32.00;48.20;;;;;;5053339;28;20041;-74
2021/06/16 12:58:13;;;;;;;6.88;2.58;;;32.20;48.20;;;;;;5052730;28;20035;-74
2021/06/16 13:00:39;;;;;;;4.22;2.15;;;32.20;50.30;;;;;;5052377;28;20029;-74